Agadir Al Massira, Morocco
Current Conditions -  °F | °C
As of 10:00 AM on Thursday 23 Oct 2014 (Local Time) from GMAD Reporting Station
Few Clouds Few Clouds  
Wind Chill: 63°   Ceiling: Unl
Heat Index: 63°   Visibility: 5mi
Dew Point: 59°   Wind: 3mph
Humidity: 88%   Direction: 190°S
Pressure: 30.06"   Gusts: NA
Location:  30.33°N, 9.4°W
Report Text: GMAD 230900Z 19003KT 8000 FEW006 17/15 Q1018 NOSIG
Loading
Personal Weather Stations






























Interactive Weather Map
Tropical Storm Tracking
New forecast layout! Learn more

10-Day Weather Forecast

Advertisements
Track Severe Weather on mobile